createdAt,value
2022-10-18T00:00:53.182Z,10.30
2022-10-18T00:03:20.656Z,10.90
2022-10-18T00:05:48.810Z,11.00
2022-10-18T00:08:17.579Z,12.60
2022-10-18T00:10:45.630Z,8.70
2022-10-18T00:13:13.038Z,10.50
2022-10-18T00:15:40.489Z,13.90
2022-10-18T00:18:07.855Z,10.30
2022-10-18T00:20:35.203Z,12.50
2022-10-18T00:23:02.555Z,10.70
2022-10-18T00:25:29.881Z,10.30
2022-10-18T00:27:57.206Z,9.40
2022-10-18T00:30:25.728Z,11.30
2022-10-18T00:32:53.047Z,10.50
2022-10-18T00:35:20.414Z,10.90
2022-10-18T00:37:47.772Z,7.50
2022-10-18T00:40:15.081Z,11.30
2022-10-18T00:42:42.402Z,12.60
2022-10-18T00:45:24.649Z,12.80
2022-10-18T00:47:58.690Z,11.80
2022-10-18T00:50:30.099Z,9.70
2022-10-18T00:53:02.702Z,9.30
2022-10-18T00:55:32.921Z,9.50
2022-10-18T00:58:01.964Z,9.20
2022-10-18T01:00:29.549Z,9.30
2022-10-18T01:02:59.391Z,10.60
2022-10-18T01:05:27.401Z,11.80
2022-10-18T01:08:22.440Z,11.40
2022-10-18T01:11:05.764Z,11.10
2022-10-18T01:13:45.138Z,10.30
2022-10-18T01:16:43.470Z,10.60
2022-10-18T01:19:38.114Z,12.50
2022-10-18T01:22:39.303Z,11.00
2022-10-18T01:25:19.293Z,9.60
2022-10-18T01:28:12.374Z,10.00
2022-10-18T01:30:59.418Z,10.50
2022-10-18T01:33:35.959Z,11.20
2022-10-18T01:36:18.072Z,11.40
2022-10-18T01:38:48.823Z,12.40
2022-10-18T01:41:19.201Z,14.60
2022-10-18T01:43:51.137Z,11.10
2022-10-18T01:46:23.858Z,10.40
2022-10-18T01:48:53.275Z,10.60
2022-10-18T01:51:27.026Z,10.60
2022-10-18T01:53:55.262Z,11.50
2022-10-18T01:56:52.126Z,11.10
2022-10-18T01:59:47.104Z,11.60
2022-10-18T02:02:47.624Z,11.10
2022-10-18T02:05:56.968Z,11.30
2022-10-18T02:08:59.908Z,10.00
2022-10-18T02:11:29.849Z,12.30
2022-10-18T02:14:10.445Z,10.40
2022-10-18T02:17:00.213Z,11.50
2022-10-18T02:19:37.964Z,13.80
2022-10-18T02:22:10.285Z,12.80
2022-10-18T02:24:51.516Z,14.20
2022-10-18T02:29:46.517Z,13.00
2022-10-18T02:32:35.363Z,14.40
2022-10-18T02:35:14.549Z,15.50
2022-10-18T02:37:43.114Z,15.10
2022-10-18T02:40:11.467Z,11.90
2022-10-18T02:42:49.720Z,11.80
2022-10-18T02:45:17.572Z,13.90
2022-10-18T02:47:45.186Z,13.20
2022-10-18T02:50:13.125Z,13.40
2022-10-18T02:52:40.598Z,12.70
2022-10-18T02:55:09.166Z,14.30
2022-10-18T02:57:37.317Z,15.00
2022-10-18T03:00:06.286Z,16.70
2022-10-18T03:02:33.762Z,21.20
2022-10-18T03:05:01.128Z,16.70
2022-10-18T03:07:28.566Z,20.60
2022-10-18T03:09:56.136Z,19.80
2022-10-18T03:12:23.692Z,18.30
2022-10-18T03:14:51.040Z,20.60
2022-10-18T03:17:18.368Z,20.00
2022-10-18T03:19:45.681Z,20.40
2022-10-18T03:22:12.995Z,21.20
2022-10-18T03:24:40.291Z,19.50
2022-10-18T03:27:07.827Z,19.10
2022-10-18T03:29:35.162Z,26.20
2022-10-18T03:32:02.495Z,20.60
2022-10-18T03:34:29.826Z,20.00
2022-10-18T03:37:00.942Z,21.40
2022-10-18T03:39:30.895Z,21.20
2022-10-18T03:41:58.264Z,22.80
2022-10-18T03:44:25.575Z,19.00
2022-10-18T03:46:52.970Z,18.70
2022-10-18T03:49:20.362Z,19.50
2022-10-18T03:51:47.894Z,18.50
2022-10-18T03:54:15.244Z,16.50
2022-10-18T03:56:43.254Z,17.00
2022-10-18T03:59:10.873Z,18.80
2022-10-18T04:01:38.261Z,15.30
2022-10-18T04:04:05.712Z,15.60
2022-10-18T04:06:33.143Z,14.20
2022-10-18T04:09:00.483Z,17.00
2022-10-18T04:11:27.794Z,17.40
2022-10-18T04:13:55.300Z,17.20
2022-10-18T04:16:22.873Z,15.40
2022-10-18T04:18:50.331Z,14.20
2022-10-18T04:21:17.819Z,16.30
2022-10-18T04:23:48.854Z,15.80
2022-10-18T04:26:17.263Z,17.80
2022-10-18T04:28:45.212Z,18.90
2022-10-18T04:31:12.730Z,15.00
2022-10-18T04:33:40.126Z,16.80
2022-10-18T04:36:08.563Z,14.50
2022-10-18T04:38:35.970Z,13.20
2022-10-18T04:41:03.498Z,15.30
2022-10-18T04:43:30.876Z,11.30
2022-10-18T04:45:58.381Z,11.80
2022-10-18T04:48:25.688Z,13.60
2022-10-18T04:50:53.114Z,12.80
2022-10-18T04:53:20.596Z,10.70
2022-10-18T04:55:49.452Z,10.30
2022-10-18T04:58:18.097Z,9.80
2022-10-18T05:00:47.812Z,11.30
2022-10-18T05:03:15.709Z,12.40
2022-10-18T05:06:00.621Z,12.70
2022-10-18T05:08:30.325Z,12.10
2022-10-18T05:10:57.959Z,10.50
2022-10-18T05:13:25.647Z,11.30
2022-10-18T05:15:53.103Z,14.00
2022-10-18T05:18:20.622Z,12.60
2022-10-18T05:20:47.960Z,12.60
2022-10-18T05:23:15.300Z,13.70
2022-10-18T05:25:43.627Z,12.10
2022-10-18T05:28:34.750Z,13.70
2022-10-18T05:31:07.333Z,12.00
2022-10-18T05:33:36.316Z,12.10
2022-10-18T05:36:04.776Z,13.10
2022-10-18T05:38:32.227Z,11.10
2022-10-18T05:41:00.133Z,10.40
2022-10-18T05:43:29.194Z,10.70
2022-10-18T05:45:56.848Z,12.40
2022-10-18T05:48:24.783Z,10.10
2022-10-18T05:50:52.556Z,11.10
2022-10-18T05:56:08.387Z,10.20
2022-10-18T05:58:35.944Z,13.00
2022-10-18T06:01:05.557Z,11.10
2022-10-18T06:03:33.826Z,10.90
2022-10-18T06:06:05.371Z,12.60
2022-10-18T06:08:33.856Z,9.60
2022-10-18T06:11:08.217Z,9.80
2022-10-18T06:13:50.081Z,11.30
2022-10-18T06:16:21.793Z,10.70
2022-10-18T06:18:52.258Z,9.90
2022-10-18T06:21:20.702Z,11.30
2022-10-18T06:23:53.329Z,11.70
2022-10-18T06:26:21.899Z,9.40
2022-10-18T06:28:49.753Z,10.00
2022-10-18T06:31:17.541Z,9.50
2022-10-18T06:33:46.103Z,10.80
2022-10-18T06:36:17.566Z,10.90
2022-10-18T06:38:45.371Z,11.30
2022-10-18T06:41:12.980Z,11.20
2022-10-18T06:43:40.825Z,9.60
2022-10-18T06:46:09.258Z,8.90
2022-10-18T06:48:38.874Z,8.80
2022-10-18T06:51:08.199Z,9.30
2022-10-18T06:53:44.140Z,11.80
2022-10-18T06:56:16.291Z,8.70
2022-10-18T06:58:43.853Z,11.70
2022-10-18T07:01:16.058Z,11.80
2022-10-18T07:03:45.601Z,8.70
2022-10-18T07:06:16.753Z,9.40
2022-10-18T07:11:19.643Z,8.70
2022-10-18T07:13:47.217Z,10.70
2022-10-18T07:16:18.832Z,10.30
2022-10-18T07:18:51.412Z,13.20
2022-10-18T07:21:23.999Z,11.60
2022-10-18T07:23:52.569Z,12.80
2022-10-18T07:26:34.093Z,11.70
2022-10-18T07:29:08.200Z,10.20
2022-10-18T07:31:36.461Z,10.60
2022-10-18T07:34:05.887Z,12.20
2022-10-18T07:36:33.827Z,10.90
2022-10-18T07:39:01.134Z,10.80
2022-10-18T07:41:30.159Z,11.70
2022-10-18T07:43:57.698Z,9.70
2022-10-18T07:46:25.129Z,11.80
2022-10-18T07:48:52.558Z,13.30
2022-10-18T07:51:21.097Z,11.00
2022-10-18T07:53:48.488Z,11.10
2022-10-18T07:56:21.150Z,9.90
2022-10-18T07:58:52.535Z,10.80
2022-10-18T08:01:22.573Z,9.60
2022-10-18T08:03:51.347Z,8.50
2022-10-18T08:06:20.378Z,10.10
2022-10-18T08:08:48.318Z,9.10
2022-10-18T08:11:24.677Z,10.00
2022-10-18T08:13:53.647Z,11.00
2022-10-18T08:16:25.591Z,9.80
2022-10-18T08:18:54.046Z,9.40
2022-10-18T08:21:22.015Z,9.20
2022-10-18T08:23:49.964Z,8.40
2022-10-18T08:26:20.587Z,9.00
2022-10-18T08:28:54.101Z,6.10
2022-10-18T08:31:26.265Z,6.60
2022-10-18T08:33:57.127Z,5.60
2022-10-18T08:36:25.222Z,6.90
2022-10-18T08:38:52.661Z,6.30
2022-10-18T08:41:38.089Z,5.70
2022-10-18T08:44:29.773Z,6.90
2022-10-18T08:47:06.837Z,5.70
2022-10-18T08:49:49.309Z,4.30
2022-10-18T08:52:35.808Z,5.40
2022-10-18T08:55:50.585Z,6.10
2022-10-18T08:58:26.946Z,5.80
2022-10-18T09:01:06.483Z,5.40
2022-10-18T09:04:28.516Z,7.30
2022-10-18T09:07:30.043Z,5.10
2022-10-18T09:10:21.180Z,7.70
2022-10-18T09:13:35.885Z,6.80
2022-10-18T09:16:06.788Z,6.30
2022-10-18T09:18:45.025Z,5.70
2022-10-18T09:21:23.575Z,6.50
2022-10-18T09:24:14.468Z,5.70
2022-10-18T09:26:48.959Z,4.70
2022-10-18T09:29:40.412Z,7.00
2022-10-18T09:32:50.088Z,5.80
2022-10-18T09:35:24.518Z,5.70
2022-10-18T09:38:02.758Z,6.20
2022-10-18T09:40:36.837Z,5.20
2022-10-18T09:43:17.464Z,6.40
2022-10-18T09:45:47.094Z,5.50
2022-10-18T09:48:29.221Z,6.20
2022-10-18T09:51:22.209Z,5.60
2022-10-18T09:54:17.959Z,4.20
2022-10-18T09:59:44.651Z,6.90
2022-10-18T10:02:23.767Z,6.10
2022-10-18T10:04:54.191Z,6.00
2022-10-18T10:07:29.755Z,5.80
2022-10-18T10:10:20.750Z,8.20
2022-10-18T10:12:49.084Z,7.00
2022-10-18T10:15:23.516Z,6.00
2022-10-18T10:18:01.129Z,4.90
2022-10-18T10:20:51.020Z,6.30
2022-10-18T10:23:36.742Z,5.80
2022-10-18T10:26:18.786Z,4.60
2022-10-18T10:28:49.017Z,7.60
2022-10-18T10:31:25.319Z,3.60
2022-10-18T10:34:06.021Z,3.80
2022-10-18T10:36:35.107Z,2.70
2022-10-18T10:39:18.943Z,2.70
2022-10-18T10:41:55.218Z,3.50
2022-10-18T10:44:26.397Z,4.20
2022-10-18T10:46:55.065Z,5.80
2022-10-18T10:49:41.675Z,4.10
2022-10-18T10:52:27.216Z,5.90
2022-10-18T10:55:05.697Z,3.50
2022-10-18T10:57:38.615Z,3.70
2022-10-18T11:00:06.766Z,4.10
2022-10-18T11:02:36.777Z,3.10
2022-10-18T11:05:24.516Z,5.30
2022-10-18T11:07:57.486Z,3.60
2022-10-18T11:10:29.549Z,3.50
2022-10-18T11:13:04.731Z,4.00
2022-10-18T11:15:53.253Z,3.40
2022-10-18T11:18:34.053Z,2.60
2022-10-18T11:21:23.346Z,5.10
2022-10-18T11:23:51.156Z,4.70
2022-10-18T11:26:43.737Z,3.20
2022-10-18T11:29:32.975Z,4.50
2022-10-18T11:33:08.026Z,3.80
2022-10-18T11:35:48.416Z,6.70
2022-10-18T11:38:37.169Z,3.70
2022-10-18T11:41:36.539Z,3.50
2022-10-18T11:44:26.369Z,3.70
2022-10-18T11:47:26.060Z,3.80
2022-10-18T11:50:33.105Z,4.40
2022-10-18T11:53:17.786Z,2.90
2022-10-18T11:56:18.921Z,2.80
2022-10-18T11:59:26.391Z,2.80
2022-10-18T12:02:21.558Z,4.00
2022-10-18T12:05:22.582Z,3.40
2022-10-18T12:08:09.929Z,2.90
2022-10-18T12:13:35.429Z,3.10
2022-10-18T12:16:04.723Z,3.60
2022-10-18T12:18:33.074Z,3.50
2022-10-18T12:21:02.050Z,3.80
2022-10-18T12:23:29.478Z,3.60
2022-10-18T12:26:04.409Z,4.70
2022-10-18T12:28:34.921Z,4.90
2022-10-18T12:31:27.101Z,4.00
2022-10-18T12:33:59.574Z,3.70
2022-10-18T12:36:55.001Z,4.10
2022-10-18T12:39:43.365Z,4.80
2022-10-18T12:42:23.201Z,5.90
2022-10-18T12:45:03.737Z,5.00
2022-10-18T12:47:31.916Z,3.00
2022-10-18T12:50:17.191Z,4.50
2022-10-18T12:52:44.568Z,3.10
2022-10-18T12:55:16.928Z,5.30
2022-10-18T12:57:54.198Z,4.80
2022-10-18T13:00:30.588Z,2.80
2022-10-18T13:03:26.780Z,3.20
2022-10-18T13:06:01.775Z,4.20
2022-10-18T13:08:40.806Z,2.60
2022-10-18T13:11:08.151Z,4.20
2022-10-18T13:13:51.715Z,3.70
2022-10-18T13:16:54.163Z,3.80
2022-10-18T13:19:30.314Z,3.30
2022-10-18T13:22:37.370Z,3.10
2022-10-18T13:25:16.939Z,3.50
2022-10-18T13:28:16.595Z,2.30
2022-10-18T13:31:17.101Z,2.60
2022-10-18T13:33:44.567Z,3.20
2022-10-18T13:36:22.695Z,3.10
2022-10-18T13:38:53.546Z,2.00
2022-10-18T13:41:25.373Z,2.90
2022-10-18T13:43:52.901Z,3.70
2022-10-18T13:46:44.705Z,3.20
2022-10-18T13:49:40.608Z,3.20
2022-10-18T13:52:32.477Z,3.70
2022-10-18T13:55:21.737Z,5.00
2022-10-18T13:58:23.488Z,4.00
2022-10-18T14:01:06.642Z,2.90
2022-10-18T14:03:57.391Z,5.40
2022-10-18T14:06:34.111Z,2.80
2022-10-18T14:09:26.186Z,2.70
2022-10-18T14:12:27.447Z,3.80
2022-10-18T14:15:10.380Z,5.90
2022-10-18T14:17:55.870Z,3.10
2022-10-18T14:20:49.559Z,1.70
2022-10-18T14:23:33.842Z,7.50
2022-10-18T14:26:14.949Z,3.50
2022-10-18T14:28:58.978Z,3.40
2022-10-18T14:31:27.379Z,2.70
2022-10-18T14:33:58.630Z,4.40
2022-10-18T14:36:31.287Z,2.60
2022-10-18T14:39:04.900Z,3.80
2022-10-18T14:41:35.566Z,3.80
2022-10-18T14:44:24.886Z,4.50
2022-10-18T14:47:02.003Z,3.30
2022-10-18T14:49:31.018Z,2.20
2022-10-18T14:52:00.832Z,4.40
2022-10-18T14:54:36.657Z,3.50
2022-10-18T14:57:05.963Z,3.00
2022-10-18T14:59:59.524Z,3.80
2022-10-18T15:02:30.634Z,2.60
2022-10-18T15:05:22.486Z,4.60
2022-10-18T15:07:52.016Z,4.90
2022-10-18T15:10:23.024Z,2.70
2022-10-18T15:13:08.728Z,6.70
2022-10-18T15:15:37.877Z,3.10
2022-10-18T15:18:08.417Z,2.80
2022-10-18T15:20:42.442Z,3.60
2022-10-18T15:23:24.964Z,4.80
2022-10-18T15:26:00.939Z,4.30
2022-10-18T15:28:51.167Z,4.50
2022-10-18T15:31:31.617Z,4.10
2022-10-18T15:34:26.417Z,4.30
2022-10-18T15:36:56.216Z,3.80
2022-10-18T15:39:27.996Z,4.80
2022-10-18T15:42:02.735Z,5.30
2022-10-18T15:44:51.486Z,4.30
2022-10-18T15:47:21.612Z,3.80
2022-10-18T15:49:51.115Z,2.80
2022-10-18T15:52:21.596Z,3.10
2022-10-18T15:57:25.674Z,3.50
2022-10-18T16:00:02.214Z,3.80
2022-10-18T16:02:30.377Z,4.10
2022-10-18T16:05:00.280Z,3.60
2022-10-18T16:07:27.712Z,4.20
2022-10-18T16:09:55.006Z,4.20
2022-10-18T16:12:22.372Z,3.80
2022-10-18T16:14:49.735Z,3.80
2022-10-18T16:17:17.417Z,3.30
2022-10-18T16:19:44.837Z,5.10
2022-10-18T16:24:45.751Z,2.70
2022-10-18T16:27:13.200Z,5.40
2022-10-18T16:29:41.550Z,4.50
2022-10-18T16:32:09.023Z,4.10
2022-10-18T16:34:36.567Z,4.00
2022-10-18T16:37:07.081Z,3.80
2022-10-18T16:39:35.407Z,5.90
2022-10-18T16:42:02.844Z,3.90
2022-10-18T16:44:30.160Z,4.40
2022-10-18T16:46:57.460Z,4.30
2022-10-18T16:49:26.412Z,4.80
2022-10-18T16:51:54.659Z,4.00
2022-10-18T16:54:23.523Z,3.90
2022-10-18T16:56:51.238Z,5.00
2022-10-18T16:59:26.057Z,7.70
2022-10-18T17:01:53.598Z,4.90
2022-10-18T17:04:21.073Z,4.70
2022-10-18T17:06:51.625Z,4.60
2022-10-18T17:09:18.932Z,8.30
2022-10-18T17:11:46.483Z,4.40
2022-10-18T17:14:13.881Z,4.40
2022-10-18T17:16:44.459Z,3.60
2022-10-18T17:19:14.921Z,4.10
2022-10-18T17:21:42.355Z,5.60
2022-10-18T17:24:09.838Z,6.50
2022-10-18T17:26:37.237Z,4.40
2022-10-18T17:29:08.118Z,6.90
2022-10-18T17:34:03.970Z,4.40
2022-10-18T17:36:32.678Z,5.60
2022-10-18T17:39:00.582Z,4.30
2022-10-18T17:41:28.036Z,5.10
2022-10-18T17:43:55.440Z,5.70
2022-10-18T17:46:23.733Z,4.80
2022-10-18T17:48:51.184Z,4.90
2022-10-18T17:51:20.125Z,5.70
2022-10-18T17:53:47.468Z,6.70
2022-10-18T17:56:16.119Z,6.20
2022-10-18T17:58:43.692Z,5.10
2022-10-18T18:01:23.932Z,5.80
2022-10-18T18:03:57.446Z,6.00
2022-10-18T18:06:33.467Z,5.80
2022-10-18T18:09:08.596Z,7.00
2022-10-18T18:11:38.085Z,7.20
2022-10-18T18:14:09.449Z,9.30
2022-10-18T18:16:40.214Z,6.40
2022-10-18T18:19:09.948Z,5.80
2022-10-18T18:21:39.412Z,7.10
2022-10-18T18:24:07.787Z,10.60
2022-10-18T18:26:36.213Z,6.50
2022-10-18T18:29:04.115Z,7.20
2022-10-18T18:31:34.526Z,8.60
2022-10-18T18:34:06.192Z,8.90
2022-10-18T18:36:33.724Z,6.60
2022-10-18T18:39:01.262Z,9.20
2022-10-18T18:41:29.324Z,7.00
2022-10-18T18:44:00.213Z,7.10
2022-10-18T18:46:33.018Z,6.60
2022-10-18T18:49:00.396Z,7.30
2022-10-18T18:51:28.172Z,7.80
2022-10-18T18:53:55.605Z,9.50
2022-10-18T18:56:26.321Z,9.50
2022-10-18T18:58:54.010Z,8.50
2022-10-18T19:01:25.786Z,7.80
2022-10-18T19:03:56.172Z,6.90
2022-10-18T19:06:27.859Z,9.30
2022-10-18T19:09:03.131Z,8.10
2022-10-18T19:11:35.113Z,8.50
2022-10-18T19:14:03.833Z,7.40
2022-10-18T19:16:36.751Z,9.00
2022-10-18T19:19:13.430Z,7.70
2022-10-18T19:22:04.436Z,7.90
2022-10-18T19:24:33.563Z,12.20
2022-10-18T19:27:04.820Z,8.60
2022-10-18T19:29:35.752Z,7.90
2022-10-18T19:32:07.418Z,7.50
2022-10-18T19:34:35.793Z,8.30
2022-10-18T19:37:03.993Z,6.60
2022-10-18T19:39:34.555Z,6.40
2022-10-18T19:42:09.798Z,8.20
2022-10-18T19:44:37.497Z,10.30
2022-10-18T19:47:08.198Z,10.40
2022-10-18T19:49:35.583Z,7.70
2022-10-18T19:52:03.150Z,9.00
2022-10-18T19:54:31.622Z,8.50
2022-10-18T19:56:59.139Z,9.20
2022-10-18T19:59:26.864Z,7.90
2022-10-18T20:01:54.340Z,9.60
2022-10-18T20:04:21.823Z,8.90
2022-10-18T20:06:49.231Z,6.70
2022-10-18T20:09:19.669Z,6.50
2022-10-18T20:11:48.286Z,8.60
2022-10-18T20:14:15.773Z,6.60
2022-10-18T20:16:43.113Z,7.20
2022-10-18T20:19:10.603Z,10.60
2022-10-18T20:21:39.396Z,8.70
2022-10-18T20:24:09.228Z,7.60
2022-10-18T20:26:37.110Z,7.10
2022-10-18T20:29:04.731Z,7.10
2022-10-18T20:31:37.115Z,8.00
2022-10-18T20:34:08.784Z,6.70
2022-10-18T20:36:36.574Z,7.50
2022-10-18T20:39:04.971Z,9.90
2022-10-18T20:41:36.698Z,7.60
2022-10-18T20:44:07.925Z,8.60
2022-10-18T20:49:06.297Z,9.20
2022-10-18T20:51:34.284Z,10.50
2022-10-18T20:56:34.568Z,8.30
2022-10-18T20:59:02.818Z,7.20
2022-10-18T21:01:33.797Z,8.60
2022-10-18T21:04:04.633Z,8.60
2022-10-18T21:06:40.195Z,9.00
2022-10-18T21:09:12.197Z,10.40
2022-10-18T21:11:42.111Z,11.50
2022-10-18T21:14:16.085Z,11.60
2022-10-18T21:16:44.646Z,10.10
2022-10-18T21:19:16.885Z,10.00
2022-10-18T21:21:47.426Z,10.10
2022-10-18T21:24:15.174Z,9.90
2022-10-18T21:26:43.336Z,9.50
2022-10-18T21:29:12.467Z,8.40
2022-10-18T21:31:42.155Z,10.30
2022-10-18T21:34:17.362Z,7.70
2022-10-18T21:36:47.036Z,7.70
2022-10-18T21:39:18.056Z,8.70
2022-10-18T21:41:46.259Z,8.30
2022-10-18T21:44:14.720Z,9.00
2022-10-18T21:46:46.823Z,7.60
2022-10-18T21:49:15.322Z,9.30
2022-10-18T21:51:43.273Z,6.20
2022-10-18T21:54:16.023Z,7.20
2022-10-18T21:56:44.003Z,7.20
2022-10-18T21:59:12.973Z,6.00
2022-10-18T22:01:40.981Z,8.50
2022-10-18T22:04:20.603Z,7.30
2022-10-18T22:06:48.914Z,9.30
2022-10-18T22:09:16.697Z,6.50
2022-10-18T22:11:51.042Z,7.20
2022-10-18T22:14:18.433Z,5.50
2022-10-18T22:16:45.797Z,7.90
2022-10-18T22:19:13.779Z,8.50
2022-10-18T22:21:41.113Z,7.10
2022-10-18T22:24:09.955Z,6.60
2022-10-18T22:26:41.125Z,7.50
2022-10-18T22:31:42.581Z,6.40
2022-10-18T22:34:19.705Z,8.10
2022-10-18T22:36:47.211Z,7.00
2022-10-18T22:39:16.745Z,7.00
2022-10-18T22:41:44.126Z,7.10
2022-10-18T22:44:13.702Z,6.70
2022-10-18T22:46:42.324Z,8.90
2022-10-18T22:49:11.134Z,7.30
2022-10-18T22:51:38.629Z,8.00
2022-10-18T22:54:06.309Z,7.40
2022-10-18T22:56:33.651Z,7.20
2022-10-18T22:59:00.992Z,7.00
2022-10-18T23:01:28.466Z,8.10
2022-10-18T23:03:58.865Z,6.90
2022-10-18T23:06:34.029Z,9.10
2022-10-18T23:09:07.492Z,7.60
2022-10-18T23:11:36.310Z,7.80
2022-10-18T23:14:06.327Z,8.70
2022-10-18T23:16:33.800Z,7.70
2022-10-18T23:19:01.148Z,7.60
2022-10-18T23:21:29.213Z,8.30
2022-10-18T23:23:57.497Z,8.30
2022-10-18T23:26:27.945Z,6.60
2022-10-18T23:28:56.211Z,7.90
2022-10-18T23:31:32.837Z,9.70
2022-10-18T23:34:04.279Z,7.40
2022-10-18T23:36:33.170Z,8.30
2022-10-18T23:39:01.289Z,8.10
2022-10-18T23:41:28.609Z,9.80
2022-10-18T23:43:55.960Z,7.70
2022-10-18T23:46:23.786Z,8.10
2022-10-18T23:48:51.342Z,7.50
2022-10-18T23:51:18.727Z,8.20
2022-10-18T23:53:46.452Z,9.70
2022-10-18T23:56:16.358Z,8.90
2022-10-18T23:58:44.968Z,9.00
